< < Back
Terminal Aerodrome Forecast


Current Version              Previous Versions:   1  2  3  4  5  6  7  8  9  

Terminal Aerodrome Forecast

918
FTUS44 KOHX 271700
TAFBNA
TAF
KBNA 271720Z 2718/2818 04005KT P6SM SCT045=

Latest METAR

252
SAUS70 KWBC 281300 RRC
MTRBNA
METAR KBNA 281253Z 00000KT 9SM FEW017 SCT055 25/22 A3007 RMK AO2 SLP176
T02500217


USA.gov is the U.S. government's official web portal to all federal, state and local government web resources and services.